Latest Weather Observations for Stawell

IDV60801

Issued at 10:32 pm EDT Thursday 23 February 2017 (issued every 30 minutes, with the page automatically refreshed every 10 minutes)

About weather observations | Map of weather stations | Latest weather observations for VIC | Other Formats
Station Details ID: 079105 Name: STAWELL AERODROME Lat: -37.07 Lon: 142.74 Height: 235.36 m
Data from the previous 72 hours. | See also: Recent months at Stawell
Date/Time
EDT
Temp
°C
App
Temp
°C
Dew
Point
°C
Rel
Hum
%
Delta-T
°C
Wind Press
QNH
hPa
Press
MSL
hPa
Rain since
9am
mm
Dir  Spd
km/h
Gust
km/h
Spd
kts
Gust
kts
23/10:30pm 16.4 14.0 12.8 79 2.0 SSE 17 26 9 14 1022.2 1021.4 0.0
23/10:00pm 16.9 14.0 12.8 77 2.3 SSE 20 33 11 18 1021.9 1021.0 0.0
23/09:30pm 17.6 13.5 12.7 73 2.8 S 26 37 14 20 1021.4 1020.5 0.0
23/09:00pm 18.9 15.1 12.4 66 3.7 S 24 35 13 19 1020.9 1020.0 0.0
23/08:30pm 21.3 18.3 10.5 50 6.0 S 17 30 9 16 1020.3 1019.4 0.0
23/08:00pm 22.5 19.3 10.0 45 6.9 S 17 26 9 14 1019.7 1018.9 0.0
23/07:30pm 24.0 21.7 10.3 42 7.6 SW 13 22 7 12 1019.2 1018.4 0.0
23/07:00pm 25.0 22.6 10.1 39 8.3 SW 13 20 7 11 1019.0 1018.2 0.0
23/06:30pm 25.9 23.6 10.5 38 8.7 WSW 13 19 7 10 1018.8 1018.0 0.0
23/06:00pm 25.8 23.0 10.0 37 8.8 WSW 15 28 8 15 1018.5 1017.7 0.0
23/05:30pm 26.1 23.4 10.3 37 8.9 SW 15 24 8 13 1018.4 1017.6 0.0
23/05:00pm 26.0 23.0 9.4 35 9.2 WSW 15 22 8 12 1018.3 1017.4 0.0
23/04:30pm 26.4 23.8 9.3 34 9.5 WSW 13 26 7 14 1018.1 1017.2 0.0
23/04:00pm 26.5 24.4 9.8 35 9.3 W 11 19 6 10 1018.2 1017.3 0.0
23/03:30pm 25.4 23.3 9.7 37 8.7 WSW 11 22 6 12 1018.2 1017.3 0.0
23/03:00pm 25.1 22.7 10.2 39 8.3 SSW 13 26 7 14 1018.4 1017.6 0.0
23/02:30pm 24.6 22.6 10.1 40 8.1 WNW 11 17 6 9 1018.4 1017.6 0.0
23/02:00pm 24.0 21.6 9.9 41 7.8 W 13 22 7 12 1018.4 1017.6 0.0
23/01:30pm 24.0 22.0 10.3 42 7.6 WSW 11 20 6 11 1018.6 1017.8 0.0
23/01:00pm 23.1 20.7 10.2 44 7.1 W 13 26 7 14 1018.7 1017.9 0.0
23/12:30pm 22.2 20.3 10.4 47 6.5 SW 11 17 6 9 1018.7 1017.9 0.0
23/12:00pm 21.9 20.1 11.0 50 6.1 SSE 11 17 6 9 1018.6 1017.8 0.0
23/11:30am 20.9 19.6 11.3 54 5.4 WSW 9 19 5 10 1018.8 1018.0 0.0
23/11:00am 20.3 18.2 11.2 56 5.0 SW 13 19 7 10 1018.8 1018.0 0.0
23/10:30am 19.5 17.5 11.5 60 4.5 WSW 13 20 7 11 1018.6 1017.8 0.0
23/10:00am 18.5 17.0 11.8 65 3.7 W 11 17 6 9 1018.2 1017.3 0.0
23/09:30am 18.9 16.6 11.7 63 4.0 SW 15 22 8 12 1017.8 1016.9 0.0
23/09:00am 18.0 16.5 11.8 67 3.4 WSW 11 19 6 10 1017.5 1016.6 0.0
23/08:30am 17.9 16.5 12.1 69 3.2 WSW 11 19 6 10 1017.2 1016.3 0.0
23/08:00am 17.3 15.1 12.0 71 2.9 WSW 15 24 8 13 1016.5 1015.6 0.0
23/07:30am 16.5 15.0 11.9 74 2.5 WSW 11 17 6 9 1016.0 1015.1 0.0
23/07:00am 16.0 14.5 11.8 76 2.3 W 11 20 6 11 1015.3 1014.5 0.0
23/06:30am 16.2 12.9 11.6 74 2.5 W 20 32 11 17 1014.8 1014.0 0.0
23/06:00am 16.4 13.5 11.1 71 2.9 W 17 30 9 16 1014.4 1013.5 0.0
23/05:30am 16.1 14.0 11.1 72 2.7 WNW 13 19 7 10 1014.3 1013.4 0.0
23/05:00am 16.5 14.3 10.8 69 3.1 W 13 26 7 14 1014.1 1013.2 0.0
23/04:30am 16.7 13.7 10.8 68 3.2 WNW 17 32 9 17 1013.7 1012.8 0.0
23/04:00am 16.6 16.0 10.5 67 3.3 WSW 4 9 2 5 1013.7 1012.8 0.0
23/03:30am 17.0 16.4 10.4 65 3.5 S 4 15 2 8 1013.6 1012.7 0.0
23/03:00am 17.4 15.4 10.1 62 3.9 NW 11 22 6 12 1013.3 1012.4 0.0
23/02:30am 17.9 15.0 9.8 59 4.3 W 15 28 8 15 1013.0 1012.1 0.0
23/02:00am 18.1 15.5 9.5 57 4.6 W 13 28 7 15 1013.1 1012.2 0.0
23/01:30am 18.7 15.2 8.7 52 5.3 WNW 17 28 9 15 1013.1 1012.2 0.0
23/01:00am 18.8 16.5 7.3 47 5.9 WNW 9 15 5 8 1013.1 1012.2 0.0
23/12:30am 19.2 16.8 7.0 45 6.2 WNW 9 17 5 9 1012.7 1011.8 0.0
23/12:00am 19.8 16.1 6.2 41 6.9 W 15 28 8 15 1012.5 1011.6 0.0
 
Date/Time
EDT
Temp
°C
App
Temp
°C
Dew
Point
°C
Rel
Hum
%
Delta-T
°C
Wind Press
QNH
hPa
Press
MSL
hPa
Rain since
9am
mm
Dir  Spd
km/h
Gust
km/h
Spd
kts
Gust
kts
22/11:30pm 20.5 15.7 4.9 36 7.7 W 19 30 10 16 1012.2 1011.3 0.0
22/11:00pm 21.9 18.2 2.1 27 9.4 W 11 20 6 11 1012.0 1011.1 0.0
22/10:30pm 22.3 18.7 2.9 28 9.3 W 11 19 6 10 1011.6 1010.7 0.0
22/10:00pm 23.1 18.1 3.6 28 9.6 W 19 30 10 16 1011.2 1010.3 0.0
22/09:30pm 24.3 19.9 6.6 32 9.3 W 19 32 10 17 1010.3 1009.4 0.0
22/09:00pm 25.4 21.6 7.5 32 9.6 W 17 28 9 15 1009.8 1008.9 0.0
22/08:30pm 26.1 21.8 7.2 30 10.1 W 19 32 10 17 1009.2 1008.3 0.0
22/08:00pm 28.0 21.9 6.7 26 11.4 W 28 41 15 22 1008.3 1007.4 0.0
22/07:31pm 32.0 24.3 0.2 13 15.6 NNW 30 50 16 27 1006.8 1005.8 0.0
22/07:30pm 32.2 24.5 -3.2 10 16.4 NNW 28 44 15 24 1006.8 1005.8 0.0
22/07:00pm 33.2 24.6 -3.9 9 17.2 NNW 32 48 17 26 1006.9 1005.9 0.0
22/06:38pm 33.6 25.1 -3.6 9 17.3 NNW 32 50 17 27 1006.9 1005.9 0.0
22/06:30pm 33.4 23.9 -3.7 9 17.2 NNW 37 50 20 27 1007.0 1006.0 0.0
22/06:00pm 34.1 25.6 -3.2 9 17.6 NNW 32 50 17 27 1007.2 1006.2 0.0
22/05:30pm 33.5 24.0 -3.7 9 17.3 NNW 37 57 20 31 1007.2 1006.2 0.0
22/05:00pm 33.1 24.0 -4.0 9 17.2 NNW 35 57 19 31 1007.3 1006.4 0.0
22/04:34pm 33.3 23.8 -3.8 9 17.2 NNW 37 57 20 31 1007.9 1007.0 0.0
22/04:30pm 33.2 24.4 -3.9 9 17.2 NNW 33 52 18 28 1007.9 1007.0 0.0
22/04:06pm 33.6 25.0 -2.2 10 17.1 N 33 54 18 29 1008.3 1007.4 0.0
22/04:00pm 32.9 24.5 -2.7 10 16.8 N 32 46 17 25 1008.3 1007.4 0.0
22/03:33pm 32.5 23.1 -3.0 10 16.6 NNW 37 57 20 31 1008.8 1007.9 0.0
22/03:30pm 32.8 23.4 -2.8 10 16.7 N 37 54 20 29 1008.9 1008.0 0.0
22/03:01pm 32.3 23.2 -3.2 10 16.5 N 35 57 19 31 1009.4 1008.5 0.0
22/03:00pm 32.5 23.6 -1.7 11 16.3 N 35 50 19 27 1009.5 1008.6 0.0
22/02:41pm 32.0 22.9 -3.4 10 16.4 NNW 35 54 19 29 1009.7 1008.8 0.0
22/02:30pm 31.6 22.5 -3.7 10 16.2 NNW 35 52 19 28 1010.0 1009.1 0.0
22/02:01pm 31.0 21.8 -4.1 10 15.9 NNW 35 54 19 29 1010.6 1009.7 0.0
22/02:00pm 31.6 22.3 -2.4 11 16.0 NNW 37 54 20 29 1010.6 1009.7 0.0
22/01:34pm 30.6 22.3 -2.0 12 15.3 N 32 50 17 27 1011.1 1010.2 0.0
22/01:30pm 30.4 21.5 -2.2 12 15.2 N 35 50 19 27 1011.2 1010.3 0.0
22/01:00pm 29.4 21.0 -0.9 14 14.4 N 33 54 18 29 1011.3 1010.4 0.0
22/12:41pm 29.3 21.1 -0.9 14 14.3 N 32 50 17 27 1011.8 1010.9 0.0
22/12:30pm 28.9 20.8 -0.3 15 13.9 N 32 44 17 24 1011.9 1011.0 0.0
22/12:26pm 28.6 20.3 -0.5 15 13.8 N 33 52 18 28 1012.0 1011.1 0.0
22/12:00pm 27.4 19.2 0.2 17 12.9 N 33 46 18 25 1012.3 1011.4 0.0
22/11:32am 26.5 19.2 0.3 18 12.4 N 28 46 15 25 1013.2 1012.3 0.0
22/11:30am 26.7 19.8 0.4 18 12.5 NNE 26 46 14 25 1013.2 1012.3 0.0
22/11:03am 25.8 17.9 1.2 20 11.8 N 32 50 17 27 1013.6 1012.7 0.0
22/11:00am 25.2 17.1 0.7 20 11.6 N 33 50 18 27 1013.6 1012.7 0.0
22/10:45am 25.1 18.0 1.3 21 11.4 N 28 46 15 25 1013.8 1012.9 0.0
22/10:30am 25.0 18.0 1.8 22 11.2 NNE 28 43 15 23 1014.0 1013.1 0.0
22/10:00am 23.4 17.1 1.7 24 10.3 N 24 35 13 19 1014.3 1013.4 0.0
22/09:30am 22.3 17.8 2.4 27 9.5 N 15 24 8 13 1014.8 1014.0 0.0
22/09:00am 18.7 16.9 3.3 36 7.3 NNW 2 6 1 3 1015.0 1014.2 0.0
22/08:30am 17.0 15.1 5.0 45 5.8 WSW 4 7 2 4 1015.0 1014.2 0.0
22/08:00am 14.6 12.5 4.0 49 4.9 WNW 4 13 2 7 1015.0 1014.2 0.0
22/07:30am 14.2 11.3 4.8 53 4.4 ENE 9 13 5 7 1014.0 1013.1 0.0
22/07:00am 11.5 10.0 3.0 56 3.8 CALM 0 6 0 3 1014.2 1013.3 0.0
22/06:30am 15.0 11.9 3.5 46 5.3 E 9 11 5 6 1013.9 1013.0 0.0
22/06:00am 15.4 12.6 3.2 44 5.6 ENE 7 11 4 6 1013.8 1012.9 0.0
22/05:30am 16.1 13.5 3.2 42 6.0 ENE 6 9 3 5 1014.0 1013.1 0.0
22/05:00am 16.1 12.5 3.2 42 6.0 ENE 11 13 6 7 1013.9 1013.0 0.0
22/04:30am 16.6 13.4 3.0 40 6.3 ENE 9 11 5 6 1014.3 1013.4 0.0
22/04:00am 16.8 13.5 2.4 38 6.6 ENE 9 13 5 7 1014.5 1013.6 0.0
22/03:30am 17.0 13.7 2.2 37 6.8 ENE 9 17 5 9 1014.7 1013.9 0.0
22/03:00am 17.3 13.5 1.7 35 7.1 ENE 11 17 6 9 1015.0 1014.2 0.0
22/02:30am 17.1 13.4 2.3 37 6.8 ENE 11 15 6 8 1015.3 1014.5 0.0
22/02:00am 16.4 13.1 2.4 39 6.4 E 9 11 5 6 1015.9 1015.0 0.0
22/01:30am 16.2 12.9 2.2 39 6.3 E 9 11 5 6 1016.3 1015.4 0.0
22/01:00am 16.3 12.9 2.0 38 6.4 E 9 9 5 5 1016.7 1015.8 0.0
22/12:30am 16.7 13.3 2.0 37 6.7 E 9 11 5 6 1016.8 1015.9 0.0
22/12:00am 16.8 13.4 1.7 36 6.8 E 9 11 5 6 1017.1 1016.2 0.0
 
Date/Time
EDT
Temp
°C
App
Temp
°C
Dew
Point
°C
Rel
Hum
%
Delta-T
°C
Wind Press
QNH
hPa
Press
MSL
hPa
Rain since
9am
mm
Dir  Spd
km/h
Gust
km/h
Spd
kts
Gust
kts
21/11:30pm 17.3 13.9 1.7 35 7.1 E 9 9 5 5 1017.2 1016.3 0.0
21/11:00pm 17.4 14.0 1.8 35 7.1 E 9 11 5 6 1017.3 1016.4 0.0
21/10:30pm 17.6 14.6 2.0 35 7.1 ENE 7 9 4 5 1017.5 1016.6 0.0
21/10:00pm 17.4 14.4 2.2 36 6.9 ENE 7 9 4 5 1017.4 1016.5 0.0
21/09:30pm 18.9 15.8 1.4 31 8.0 NE 7 7 4 4 1017.3 1016.4 0.0
21/09:00pm 21.4 18.2 0.6 25 9.5 NE 7 9 4 5 1017.0 1016.1 0.0
21/08:30pm 22.5 18.9 0.9 24 10.0 NNE 9 13 5 7 1016.7 1015.8 0.0
21/08:00pm 23.8 19.8 0.8 22 10.8 NNE 11 17 6 9 1016.6 1015.7 0.0
21/07:30pm 24.5 20.5 0.8 21 11.2 N 11 22 6 12 1016.5 1015.6 0.0
21/07:00pm 24.6 20.2 0.2 20 11.4 N 13 20 7 11 1016.4 1015.5 0.0
21/06:30pm 24.5 19.4 0.8 21 11.2 N 17 22 9 12 1016.6 1015.7 0.0
21/06:00pm 25.2 21.3 1.3 21 11.4 NNE 11 20 6 11 1016.8 1015.9 0.0
21/05:30pm 24.7 20.4 0.9 21 11.2 N 13 24 7 13 1017.2 1016.3 0.0
21/05:00pm 24.8 21.8 1.7 22 11.1 NNW 7 19 4 10 1017.3 1016.4 0.0
21/04:30pm 24.3 21.0 2.5 24 10.6 N 9 19 5 10 1017.7 1016.8 0.0
21/04:00pm 24.1 20.3 1.7 23 10.7 W 11 19 6 10 1018.1 1017.2 0.0
21/03:30pm 23.7 19.9 2.0 24 10.4 NNW 11 19 6 10 1018.2 1017.3 0.0
21/03:00pm 22.9 18.7 1.9 25 9.9 NNE 13 19 7 10 1018.7 1017.9 0.0
21/02:30pm 22.7 18.7 2.8 27 9.6 WNW 13 19 7 10 1019.3 1018.5 0.0
21/02:00pm 21.6 18.0 2.8 29 9.0 NW 11 20 6 11 1019.6 1018.8 0.0
21/01:30pm 21.2 18.6 3.4 31 8.6 W 6 15 3 8 1020.0 1019.1 0.0
21/01:00pm 21.1 18.2 4.6 34 8.1 WSW 9 19 5 10 1020.2 1019.3 0.0
21/12:30pm 19.4 16.7 3.6 35 7.6 NW 7 13 4 7 1020.6 1019.7 0.0
21/12:00pm 18.9 15.9 4.3 38 7.0 W 9 17 5 9 1021.1 1020.2 0.0
21/11:30am 18.4 15.6 5.3 42 6.4 NNW 9 15 5 8 1021.6 1020.7 0.0
21/11:00am 17.3 15.4 4.9 44 6.0 NW 4 9 2 5 1021.7 1020.8 0.0
21/10:30am 16.6 14.2 5.3 47 5.5 NE 7 13 4 7 1021.7 1020.8 0.0
21/10:00am 15.7 13.1 6.2 53 4.6 ESE 9 13 5 7 1021.5 1020.6 0.0
21/09:30am 14.1 13.4 8.5 69 2.8 ENE 2 7 1 4 1021.7 1020.8 0.0
21/09:00am 12.2 11.7 7.9 75 2.1 CALM 0 0 0 0 1021.5 1020.6 0.0
21/08:30am 10.0 9.3 7.1 82 1.4 CALM 0 0 0 0 1021.2 1020.3 0.0
21/08:00am 8.3 7.2 6.9 91 0.7 E 2 6 1 3 1020.7 1019.8 0.0
21/07:30am 6.9 5.3 6.2 95 0.3 SE 4 7 2 4 1020.4 1019.5 0.0
21/07:00am 6.5 5.6 5.9 96 0.3 CALM 0 0 0 0 1020.2 1019.3 0.0
21/06:30am 6.5 5.5 5.8 95 0.3 CALM 0 0 0 0 1019.8 1019.0 0.0
21/06:00am 6.4 5.4 5.7 95 0.3 CALM 0 0 0 0 1019.7 1018.9 0.0
21/05:30am 5.7 4.4 4.3 91 0.6 CALM 0 0 0 0 1019.4 1018.6 0.0
21/05:00am 6.8 5.8 5.4 91 0.6 CALM 0 0 0 0 1019.2 1018.4 0.0
21/04:30am 7.8 7.1 6.9 94 0.4 CALM 0 0 0 0 1019.0 1018.2 0.0
21/04:00am 7.5 6.7 6.3 92 0.6 CALM 0 0 0 0 1019.0 1018.2 0.0
21/03:30am 8.2 7.4 6.7 90 0.7 CALM 0 0 0 0 1019.1 1018.3 0.0
21/03:00am 7.9 6.6 5.9 87 0.9 S 2 6 1 3 1019.1 1018.3 0.0
21/02:30am 8.1 7.2 5.9 86 1.0 CALM 0 6 0 3 1019.0 1018.2 0.0
21/02:00am 9.8 7.9 6.5 80 1.6 E 6 7 3 4 1018.8 1018.0 0.0
21/01:30am 11.2 8.9 7.5 78 1.8 SE 9 13 5 7 1019.2 1018.4 0.0
21/01:00am 11.2 8.8 7.1 76 2.0 SSE 9 13 5 7 1019.4 1018.6 0.0
21/12:30am 11.2 8.7 6.5 73 2.2 SE 9 13 5 7 1019.4 1018.6 0.0
21/12:00am 11.5 8.9 6.2 70 2.5 ESE 9 15 5 8 1019.4 1018.6 0.0
 
Date/Time
EDT
Temp
°C
App
Temp
°C
Dew
Point
°C
Rel
Hum
%
Delta-T
°C
Wind Press
QNH
hPa
Press
MSL
hPa
Rain since
9am
mm
Dir  Spd
km/h
Gust
km/h
Spd
kts
Gust
kts
20/11:30pm 11.9 9.3 6.0 67 2.8 SE 9 11 5 6 1019.4 1018.6 0.0
20/11:00pm 12.5 9.8 5.7 63 3.2 ESE 9 13 5 7 1019.2 1018.4 0.0

Other Formats:

Comma delimited format used in spreadsheet applications
http://www.bom.gov.au/fwo/IDV60801/IDV60801.94836.axf

JavaScript Object Notation format (JSON) in row-major order
http://www.bom.gov.au/fwo/IDV60801/IDV60801.94836.json